Time;durP1;ratioP1;P1;durP2;ratioP2;P2;SDS_P1;SDS_P2;PMS_P1;PMS_P2;Temp;Humidity;BMP_temperature;BMP_pressure;BME280_temperature;BME280_humidity;BME280_pressure;Samples;Min_cycle;Max_cycle;Signal;HPM_P1;HPM_P2
2022/07/10 00:01:20;;;;;;;3.20;1.17;;;18.00;99.90;;;;;;4129288;28;20104;-69
2022/07/10 00:03:20;;;;;;;2.80;0.95;;;18.00;99.90;;;;;;4130005;28;20038;-69
2022/07/10 00:05:22;;;;;;;2.50;1.10;;;18.00;99.90;;;;;;4129413;28;20037;-70
2022/07/10 00:07:23;;;;;;;1.80;0.77;;;18.00;99.90;;;;;;4129485;28;20041;-69
2022/07/10 00:09:24;;;;;;;2.22;0.93;;;18.00;99.90;;;;;;4129844;28;20060;-69
2022/07/10 00:11:25;;;;;;;2.15;0.70;;;18.10;99.90;;;;;;4127691;28;20514;-69
2022/07/10 00:13:25;;;;;;;1.77;0.70;;;18.10;99.90;;;;;;4129835;28;20109;-69
2022/07/10 00:15:26;;;;;;;1.23;0.70;;;18.10;99.90;;;;;;4129320;28;20470;-69
2022/07/10 00:17:27;;;;;;;2.35;0.77;;;18.10;99.90;;;;;;4129869;28;20084;-69
2022/07/10 00:19:27;;;;;;;4.32;1.20;;;18.10;99.90;;;;;;4129341;28;20038;-69
2022/07/10 00:21:28;;;;;;;3.53;1.30;;;18.10;99.90;;;;;;4127796;28;20038;-69
2022/07/10 00:23:28;;;;;;;2.78;1.08;;;18.10;99.90;;;;;;4129353;28;20422;-69
2022/07/10 00:25:30;;;;;;;5.85;1.20;;;18.10;99.90;;;;;;4128761;28;20038;-69
2022/07/10 00:27:31;;;;;;;3.60;1.05;;;18.00;99.90;;;;;;4129414;28;20026;-69
2022/07/10 00:29:31;;;;;;;1.85;1.08;;;18.00;99.90;;;;;;4129577;28;20047;-69
2022/07/10 00:31:32;;;;;;;3.28;0.98;;;18.00;99.90;;;;;;4128369;28;20485;-69
2022/07/10 00:33:33;;;;;;;1.45;0.60;;;17.90;99.90;;;;;;4129300;28;20038;-69
2022/07/10 00:35:33;;;;;;;2.70;0.73;;;18.00;99.90;;;;;;4128890;28;20113;-69
2022/07/10 00:37:34;;;;;;;1.38;0.85;;;18.00;99.90;;;;;;4129196;28;20042;-69
2022/07/10 00:39:34;;;;;;;3.58;0.88;;;18.00;99.90;;;;;;4129162;28;20117;-69
2022/07/10 00:41:35;;;;;;;2.85;1.02;;;18.00;99.90;;;;;;4128412;28;20450;-69
2022/07/10 00:43:56;;;;;;;2.08;1.30;;;18.00;99.90;;;;;;4129135;28;20030;-69
2022/07/10 00:45:57;;;;;;;3.25;1.17;;;17.90;99.90;;;;;;4128019;28;20124;-69
2022/07/10 00:47:57;;;;;;;4.95;1.38;;;18.00;99.90;;;;;;4129116;28;20038;-69
2022/07/10 00:49:58;;;;;;;1.85;1.02;;;18.00;99.90;;;;;;4129390;28;20031;-69
2022/07/10 00:52:01;;;;;;;2.83;0.82;;;18.00;99.90;;;;;;4127984;28;20062;-69
2022/07/10 00:54:04;;;;;;;4.07;1.27;;;18.00;99.90;;;;;;4129200;28;20510;-70
2022/07/10 00:56:06;;;;;;;5.35;1.35;;;18.00;99.90;;;;;;4128889;28;20034;-69
2022/07/10 00:58:09;;;;;;;2.72;0.70;;;18.00;99.90;;;;;;4128709;28;20034;-69
2022/07/10 01:00:11;;;;;;;3.90;1.17;;;18.00;99.90;;;;;;4128532;28;20113;-71
2022/07/10 01:02:13;;;;;;;4.53;1.00;;;18.00;99.90;;;;;;4129135;28;20121;-69
2022/07/10 01:04:13;;;;;;;2.28;0.68;;;18.00;99.90;;;;;;4129268;28;20054;-69
2022/07/10 01:06:15;;;;;;;3.10;1.15;;;18.00;99.90;;;;;;4128790;28;20042;-69
2022/07/10 01:08:16;;;;;;;3.67;1.13;;;18.00;99.90;;;;;;4129199;28;20058;-69
2022/07/10 01:10:17;;;;;;;3.33;1.20;;;18.00;99.90;;;;;;4128220;28;20089;-70
2022/07/10 01:12:17;;;;;;;3.45;1.10;;;18.00;99.90;;;;;;4128824;28;20042;-69
2022/07/10 01:14:19;;;;;;;4.82;1.35;;;18.00;99.90;;;;;;4129012;28;20444;-70
2022/07/10 01:16:20;;;;;;;3.95;1.15;;;17.90;99.90;;;;;;4128756;28;20046;-69
2022/07/10 01:18:21;;;;;;;2.88;0.80;;;18.00;99.90;;;;;;4143940;28;20037;-67
2022/07/10 01:20:31;;;;;;;3.80;1.35;;;17.90;99.90;;;;;;4126219;28;20058;-67
2022/07/10 01:22:31;;;;;;;3.30;1.05;;;17.90;99.90;;;;;;4128668;28;20117;-69
2022/07/10 01:24:32;;;;;;;2.95;0.95;;;17.90;99.90;;;;;;4136812;28;20045;-69
2022/07/10 01:26:33;;;;;;;2.40;0.90;;;17.90;99.90;;;;;;4128115;28;20042;-69
2022/07/10 01:28:34;;;;;;;2.17;1.05;;;17.90;99.90;;;;;;4128881;28;20113;-69
2022/07/10 01:30:34;;;;;;;2.60;1.00;;;17.90;99.90;;;;;;4125616;28;20371;-69
2022/07/10 01:32:41;;;;;;;2.45;0.90;;;17.90;99.90;;;;;;4129129;28;20552;-69
2022/07/10 01:34:41;;;;;;;3.95;1.17;;;17.90;99.90;;;;;;4128913;28;20030;-69
2022/07/10 01:36:42;;;;;;;5.45;1.20;;;17.90;99.90;;;;;;4128900;28;20556;-70
2022/07/10 01:38:43;;;;;;;5.38;1.60;;;17.90;99.90;;;;;;4129007;28;20058;-69
2022/07/10 01:40:43;;;;;;;0.93;0.55;;;17.90;99.90;;;;;;4127949;28;20508;-69
2022/07/10 01:42:45;;;;;;;2.08;0.80;;;17.90;99.90;;;;;;4128869;28;20043;-69
2022/07/10 01:44:46;;;;;;;2.28;0.90;;;17.90;99.90;;;;;;4128896;28;20042;-69
2022/07/10 01:46:48;;;;;;;2.83;0.98;;;17.90;99.90;;;;;;4128468;28;20077;-69
2022/07/10 01:48:49;;;;;;;;;;;17.90;99.90;;;;;;4129491;28;20493;-69
2022/07/10 01:50:49;;;;;;;1.63;0.88;;;17.90;99.90;;;;;;4126645;28;19913;-69
2022/07/10 01:52:50;;;;;;;2.83;1.02;;;17.90;99.90;;;;;;4128802;28;20118;-69
2022/07/10 01:54:50;;;;;;;2.42;1.00;;;17.90;99.90;;;;;;4128926;28;20461;-69
2022/07/10 01:56:51;;;;;;;4.30;1.40;;;17.80;99.90;;;;;;4128519;28;20038;-69
2022/07/10 01:58:51;;;;;;;2.90;0.75;;;17.80;99.90;;;;;;4128491;28;20497;-68
2022/07/10 02:00:52;;;;;;;1.88;0.93;;;17.80;99.90;;;;;;4125531;28;20561;-69
2022/07/10 02:05:11;;;;;;;2.40;0.90;;;17.80;99.90;;;;;;4127880;28;20038;-70
2022/07/10 02:07:14;;;;;;;3.50;1.17;;;17.90;99.90;;;;;;4128990;28;20446;-70
2022/07/10 02:09:15;;;;;;;3.38;0.98;;;17.80;99.90;;;;;;4129506;28;20087;-69
2022/07/10 02:11:16;;;;;;;3.70;1.33;;;17.90;99.90;;;;;;4128450;28;20514;-69
2022/07/10 02:13:20;;;;;;;3.42;1.25;;;17.90;99.90;;;;;;4131605;28;20113;-69
2022/07/10 02:15:20;;;;;;;2.22;0.85;;;17.90;99.90;;;;;;4131149;28;20050;-70
2022/07/10 02:17:21;;;;;;;3.33;1.20;;;17.90;99.90;;;;;;4131505;28;20398;-69
2022/07/10 02:19:22;;;;;;;3.05;1.17;;;17.90;99.90;;;;;;4131049;28;20434;-68
2022/07/10 02:21:22;;;;;;;5.65;1.55;;;17.90;99.90;;;;;;4128067;28;20393;-69
2022/07/10 02:23:23;;;;;;;3.67;0.95;;;17.90;99.90;;;;;;4131851;28;20061;-68
2022/07/10 02:25:23;;;;;;;3.28;1.40;;;17.90;99.90;;;;;;4131095;28;21172;-68
2022/07/10 02:27:24;;;;;;;5.32;0.90;;;17.80;99.90;;;;;;4131520;28;20470;-68
2022/07/10 02:29:24;;;;;;;3.17;1.27;;;17.90;99.90;;;;;;4131426;28;20077;-68
2022/07/10 02:31:25;;;;;;;2.97;1.15;;;17.80;99.90;;;;;;4130058;28;20394;-68
2022/07/10 02:33:26;;;;;;;1.10;0.60;;;17.80;99.90;;;;;;4131486;28;20026;-68
2022/07/10 02:35:27;;;;;;;1.48;0.82;;;17.80;99.90;;;;;;4131134;28;20102;-68
2022/07/10 02:37:27;;;;;;;4.03;1.00;;;17.70;99.90;;;;;;4131378;28;20038;-68
2022/07/10 02:39:28;;;;;;;5.57;1.08;;;17.70;99.90;;;;;;4128796;28;20043;-69
2022/07/10 02:41:29;;;;;;;2.08;1.10;;;17.80;99.90;;;;;;4124589;28;20548;-69
2022/07/10 02:43:29;;;;;;;3.92;1.05;;;17.70;99.90;;;;;;4121855;28;20470;-69
2022/07/10 02:45:30;;;;;;;3.30;1.25;;;17.70;99.90;;;;;;4128823;28;20421;-69
2022/07/10 02:47:31;;;;;;;3.03;1.15;;;17.70;99.90;;;;;;4122709;28;20058;-68
2022/07/10 02:49:33;;;;;;;3.53;1.10;;;17.70;99.90;;;;;;4131134;28;20030;-69
2022/07/10 02:51:33;;;;;;;3.35;1.30;;;17.70;99.90;;;;;;4118826;28;20026;-69
2022/07/10 02:53:34;;;;;;;3.03;1.17;;;17.60;99.90;;;;;;4124359;28;20161;-69
2022/07/10 02:55:35;;;;;;;3.42;1.33;;;17.60;99.90;;;;;;4118831;28;20035;-69
2022/07/10 02:57:35;;;;;;;1.92;1.13;;;17.60;99.90;;;;;;4125756;28;20030;-69
2022/07/10 02:59:36;;;;;;;3.28;1.25;;;17.60;99.90;;;;;;4116628;28;20101;-69
2022/07/10 03:01:37;;;;;;;3.38;1.35;;;17.60;99.90;;;;;;4123777;28;20035;-69
2022/07/10 03:03:37;;;;;;;2.63;1.00;;;17.60;99.90;;;;;;4136389;28;20524;-69
2022/07/10 03:05:38;;;;;;;3.70;1.40;;;17.60;99.90;;;;;;4120299;28;20041;-69
2022/07/10 03:07:38;;;;;;;2.45;1.00;;;17.50;99.90;;;;;;4125921;28;20033;-69
2022/07/10 03:09:39;;;;;;;3.63;1.23;;;17.50;99.90;;;;;;4121696;28;20034;-69
2022/07/10 03:11:39;;;;;;;2.08;0.95;;;17.50;99.90;;;;;;4122756;28;20058;-69
2022/07/10 03:13:40;;;;;;;3.47;1.20;;;17.40;99.90;;;;;;4121998;28;20022;-69
2022/07/10 03:15:41;;;;;;;3.45;1.25;;;17.40;99.90;;;;;;4120902;28;20030;-69
2022/07/10 03:17:41;;;;;;;3.30;1.25;;;17.40;99.90;;;;;;4124965;28;20121;-69
2022/07/10 03:19:42;;;;;;;3.10;1.00;;;17.30;99.90;;;;;;4121615;28;20042;-69
2022/07/10 03:21:44;;;;;;;2.38;1.10;;;17.40;99.90;;;;;;4122663;28;20061;-69
2022/07/10 03:23:44;;;;;;;3.40;1.53;;;17.30;99.90;;;;;;4122814;28;20464;-69
2022/07/10 03:25:45;;;;;;;2.72;1.38;;;17.30;99.90;;;;;;4119641;28;20042;-69
2022/07/10 03:27:46;;;;;;;4.10;1.50;;;17.30;99.90;;;;;;4122366;28;20106;-69
2022/07/10 03:29:46;;;;;;;6.25;1.75;;;17.30;99.90;;;;;;4122692;28;20490;-69
2022/07/10 03:31:47;;;;;;;3.88;1.75;;;17.30;99.90;;;;;;4124343;28;20093;-69
2022/07/10 03:33:48;;;;;;;3.53;1.48;;;17.20;99.90;;;;;;4125797;28;20027;-69
2022/07/10 03:35:49;;;;;;;3.42;1.20;;;17.20;99.90;;;;;;4120754;28;20033;-69
2022/07/10 03:37:49;;;;;;;3.08;1.48;;;17.10;99.90;;;;;;4124045;28;20039;-69
2022/07/10 03:39:50;;;;;;;3.83;1.63;;;17.10;99.90;;;;;;4121671;28;20520;-69
2022/07/10 03:41:50;;;;;;;4.88;1.42;;;17.10;99.90;;;;;;4123763;28;20398;-69
2022/07/10 03:43:51;;;;;;;3.42;1.38;;;17.00;99.90;;;;;;4124491;28;20030;-69
2022/07/10 03:45:52;;;;;;;3.42;1.42;;;17.00;99.90;;;;;;4120210;28;20055;-69
2022/07/10 03:47:52;;;;;;;3.40;1.38;;;17.00;99.90;;;;;;4124230;28;20033;-68
2022/07/10 03:49:53;;;;;;;2.95;1.20;;;17.00;99.90;;;;;;4120984;28;20042;-68
2022/07/10 03:51:58;;;;;;;2.90;1.20;;;17.00;99.90;;;;;;4108652;28;20072;-69
2022/07/10 03:53:58;;;;;;;2.20;1.13;;;16.90;99.90;;;;;;4121885;28;20030;-69
2022/07/10 03:56:00;;;;;;;2.00;1.20;;;17.00;99.90;;;;;;4120381;28;20497;-68
2022/07/10 03:58:04;;;;;;;3.15;1.10;;;16.90;99.90;;;;;;4120924;28;20034;-69
2022/07/10 04:00:05;;;;;;;5.72;1.52;;;17.00;99.90;;;;;;4120484;28;20049;-70
2022/07/10 04:02:05;;;;;;;5.60;1.23;;;16.90;99.90;;;;;;4123402;28;20125;-69
2022/07/10 04:04:06;;;;;;;3.00;1.52;;;16.90;99.90;;;;;;4126624;28;20089;-69
2022/07/10 04:06:06;;;;;;;2.97;1.02;;;16.90;99.90;;;;;;4128982;28;20055;-69
2022/07/10 04:08:08;;;;;;;2.80;1.30;;;16.90;99.90;;;;;;4130122;28;20045;-69
2022/07/10 04:10:09;;;;;;;3.17;1.30;;;16.90;99.90;;;;;;4124067;28;20041;-70
2022/07/10 04:12:10;;;;;;;3.55;1.10;;;17.00;99.90;;;;;;4127001;28;20791;-69
2022/07/10 04:14:11;;;;;;;5.70;1.73;;;17.00;99.90;;;;;;4128336;28;20026;-69
2022/07/10 04:16:12;;;;;;;3.00;1.35;;;17.00;99.90;;;;;;4128010;28;20046;-69
2022/07/10 04:18:13;;;;;;;2.72;1.10;;;17.00;99.90;;;;;;4129172;28;20046;-69
2022/07/10 04:20:15;;;;;;;2.47;1.25;;;17.00;99.90;;;;;;4127885;28;20042;-70
2022/07/10 04:22:15;;;;;;;3.83;1.20;;;17.00;99.90;;;;;;4120483;28;20518;-69
2022/07/10 04:24:16;;;;;;;4.20;1.67;;;17.10;99.90;;;;;;4129286;28;20035;-69
2022/07/10 04:26:17;;;;;;;3.28;1.40;;;17.10;99.90;;;;;;4127989;28;20106;-69
2022/07/10 04:28:17;;;;;;;2.55;1.20;;;17.10;99.90;;;;;;4129629;28;20042;-69
2022/07/10 04:30:18;;;;;;;2.33;1.13;;;17.00;99.90;;;;;;4126003;28;20026;-70
2022/07/10 04:32:19;;;;;;;2.10;1.30;;;17.10;99.90;;;;;;4129464;28;20044;-69
2022/07/10 04:34:19;;;;;;;2.05;1.20;;;17.10;99.90;;;;;;4129715;28;20030;-69
2022/07/10 04:36:20;;;;;;;4.82;1.45;;;17.10;99.90;;;;;;4127297;28;20085;-69
2022/07/10 04:38:21;;;;;;;3.53;1.63;;;17.10;99.90;;;;;;4128556;28;20034;-69
2022/07/10 04:40:21;;;;;;;5.43;1.67;;;17.10;99.90;;;;;;4128345;28;20038;-70
2022/07/10 04:42:22;;;;;;;4.45;1.42;;;17.10;99.90;;;;;;4129568;28;20089;-69
2022/07/10 04:44:22;;;;;;;4.53;1.73;;;17.10;99.90;;;;;;4129394;28;20114;-68
2022/07/10 04:46:23;;;;;;;2.88;1.55;;;17.10;99.90;;;;;;4128279;28;20112;-69
2022/07/10 04:48:23;;;;;;;4.28;1.40;;;17.10;99.90;;;;;;4129219;28;20509;-69
2022/07/10 04:50:24;;;;;;;5.15;1.60;;;17.20;99.90;;;;;;4127938;28;20042;-69
2022/07/10 04:52:24;;;;;;;4.40;1.75;;;17.20;99.90;;;;;;4129488;28;20037;-69
2022/07/10 04:54:25;;;;;;;2.80;1.50;;;17.20;99.90;;;;;;4119655;28;20118;-69
2022/07/10 04:56:26;;;;;;;2.95;1.65;;;17.30;99.90;;;;;;4127906;28;20059;-69
2022/07/10 04:58:26;;;;;;;4.57;1.70;;;17.30;99.90;;;;;;4128929;28;20038;-69
2022/07/10 05:00:27;;;;;;;5.93;1.63;;;17.30;99.90;;;;;;4125947;28;20035;-69
2022/07/10 05:02:27;;;;;;;5.15;1.70;;;17.30;99.90;;;;;;4129605;28;20089;-69
2022/07/10 05:04:28;;;;;;;3.58;1.30;;;17.30;99.90;;;;;;4129487;28;20109;-69
2022/07/10 05:06:30;;;;;;;3.03;1.35;;;17.30;99.90;;;;;;4127183;28;20117;-69
2022/07/10 05:08:30;;;;;;;3.65;1.35;;;17.30;99.90;;;;;;4129085;28;20049;-69
2022/07/10 05:10:31;;;;;;;2.78;1.20;;;17.30;99.90;;;;;;4127817;28;20038;-69
2022/07/10 05:12:31;;;;;;;4.88;1.20;;;17.30;99.90;;;;;;4129207;28;20117;-69
2022/07/10 05:14:32;;;;;;;6.65;1.83;;;17.30;99.90;;;;;;4129350;28;20441;-69
2022/07/10 05:16:33;;;;;;;2.70;1.15;;;17.30;99.90;;;;;;4127748;28;20054;-69
2022/07/10 05:18:33;;;;;;;3.58;1.58;;;17.40;99.90;;;;;;4129232;28;20031;-69
2022/07/10 05:20:35;;;;;;;3.58;1.67;;;17.40;99.90;;;;;;4125917;28;20083;-69
2022/07/10 05:22:35;;;;;;;5.15;1.98;;;17.40;99.90;;;;;;4126154;28;20035;-69
2022/07/10 05:24:36;;;;;;;4.30;1.80;;;17.30;99.90;;;;;;4133133;28;20026;-69
2022/07/10 05:26:37;;;;;;;4.00;1.50;;;17.30;99.90;;;;;;4136755;28;20542;-69
2022/07/10 05:28:37;;;;;;;3.13;1.38;;;17.40;99.90;;;;;;4128066;28;20038;-69
2022/07/10 05:30:38;;;;;;;5.38;1.55;;;17.40;99.90;;;;;;4127671;28;20046;-69
2022/07/10 05:32:43;;;;;;;7.13;2.17;;;17.40;99.90;;;;;;4127746;28;20509;-68
2022/07/10 05:34:43;;;;;;;4.90;1.55;;;17.40;99.90;;;;;;4128835;28;20035;-69
2022/07/10 05:36:44;;;;;;;3.67;1.65;;;17.30;99.90;;;;;;4126745;28;20034;-69
2022/07/10 05:38:45;;;;;;;5.93;1.55;;;17.30;99.90;;;;;;4128867;28;20042;-69
2022/07/10 05:40:45;;;;;;;3.67;1.73;;;17.40;99.90;;;;;;4125412;28;22908;-69
2022/07/10 05:42:46;;;;;;;5.50;1.60;;;17.30;99.90;;;;;;4129206;28;20049;-69
2022/07/10 05:44:47;;;;;;;4.22;1.75;;;17.30;99.90;;;;;;4129835;28;20387;-69
2022/07/10 05:46:47;;;;;;;7.95;1.83;;;17.30;99.90;;;;;;4131487;28;20038;-70
2022/07/10 05:48:48;;;;;;;2.63;1.08;;;17.40;99.90;;;;;;4131662;28;20044;-69
2022/07/10 05:50:48;;;;;;;4.25;1.20;;;17.40;99.90;;;;;;4133044;28;20084;-69
2022/07/10 05:52:49;;;;;;;7.10;1.80;;;17.40;99.90;;;;;;4131943;28;20443;-69
2022/07/10 05:54:50;;;;;;;4.20;1.38;;;17.40;99.90;;;;;;4133184;28;20061;-69
2022/07/10 05:56:51;;;;;;;6.20;1.50;;;17.50;99.90;;;;;;4147678;28;20450;-69
2022/07/10 05:58:51;;;;;;;4.93;1.42;;;17.50;99.90;;;;;;4147748;28;20038;-69
2022/07/10 06:00:52;;;;;;;9.13;2.30;;;17.50;99.90;;;;;;4131546;28;20034;-69
2022/07/10 06:02:52;;;;;;;3.88;1.20;;;17.50;99.90;;;;;;4131223;28;20121;-69
2022/07/10 06:04:53;;;;;;;3.85;1.20;;;17.50;99.90;;;;;;4132087;28;20035;-69
2022/07/10 06:06:54;;;;;;;4.85;1.48;;;17.50;99.90;;;;;;4143537;28;20042;-70
2022/07/10 06:08:55;;;;;;;2.80;0.88;;;17.50;99.90;;;;;;4131396;28;20108;-69
2022/07/10 06:10:55;;;;;;;5.13;1.52;;;17.50;99.90;;;;;;4128428;28;20030;-69
2022/07/10 06:12:56;;;;;;;3.55;1.30;;;17.50;99.90;;;;;;4131190;28;20093;-68
2022/07/10 06:14:56;;;;;;;3.08;1.27;;;17.50;99.90;;;;;;4122706;28;20038;-68
2022/07/10 06:16:57;;;;;;;10.60;2.15;;;17.60;99.90;;;;;;4121105;28;20117;-69
2022/07/10 06:18:57;;;;;;;7.63;1.48;;;17.60;99.90;;;;;;4122195;28;20030;-69
2022/07/10 06:20:58;;;;;;;2.83;1.10;;;17.60;99.90;;;;;;4129270;28;20030;-69
2022/07/10 06:22:59;;;;;;;2.65;1.20;;;17.60;99.90;;;;;;4129641;28;20034;-69
2022/07/10 06:25:02;;;;;;;6.78;1.90;;;17.60;99.90;;;;;;4123169;28;20038;-69
2022/07/10 06:27:03;;;;;;;6.22;1.40;;;17.70;99.90;;;;;;4124270;28;20406;-69
2022/07/10 06:29:04;;;;;;;5.47;1.48;;;17.60;99.90;;;;;;4126073;28;20045;-69
2022/07/10 06:31:05;;;;;;;6.95;1.80;;;17.60;99.90;;;;;;4124281;28;20383;-69
2022/07/10 06:33:06;;;;;;;5.07;1.58;;;17.60;99.90;;;;;;4131137;28;20501;-69
2022/07/10 06:35:07;;;;;;;4.00;1.48;;;17.70;99.90;;;;;;4129204;28;20033;-71
2022/07/10 06:37:08;;;;;;;1.85;1.13;;;17.70;99.90;;;;;;4129225;28;20084;-69
2022/07/10 06:39:08;;;;;;;5.78;1.67;;;17.70;99.90;;;;;;4130120;28;20026;-70
2022/07/10 06:41:09;;;;;;;3.60;1.02;;;17.70;99.90;;;;;;4128136;28;20034;-69
2022/07/10 06:43:10;;;;;;;3.78;1.13;;;17.70;99.90;;;;;;4128001;28;20042;-70
2022/07/10 06:45:10;;;;;;;3.70;1.30;;;17.80;99.90;;;;;;4129462;28;20042;-71
2022/07/10 06:49:32;;;;;;;4.68;1.63;;;17.80;99.90;;;;;;4128826;28;20049;-69
2022/07/10 06:51:32;;;;;;;3.92;1.40;;;17.90;99.90;;;;;;4126866;28;20035;-69
2022/07/10 06:53:33;;;;;;;4.18;1.55;;;17.90;99.90;;;;;;4126933;28;20498;-69
2022/07/10 06:55:34;;;;;;;2.58;1.30;;;17.90;99.90;;;;;;4126061;28;20137;-69
2022/07/10 06:57:35;;;;;;;4.00;1.42;;;18.00;99.90;;;;;;4129149;28;20034;-69
2022/07/10 06:59:35;;;;;;;2.90;1.17;;;18.00;99.90;;;;;;4129751;28;20133;-69
2022/07/10 07:01:36;;;;;;;9.30;2.03;;;18.00;99.90;;;;;;4128379;28;20520;-69
2022/07/10 07:03:37;;;;;;;6.22;1.60;;;18.00;99.90;;;;;;4128105;28;20434;-72
2022/07/10 07:05:38;;;;;;;3.55;1.40;;;18.00;99.90;;;;;;4131139;28;20386;-74
2022/07/10 07:07:38;;;;;;;4.53;1.40;;;17.90;99.90;;;;;;4132089;28;20026;-73
2022/07/10 07:09:40;;;;;;;4.03;1.25;;;18.00;99.90;;;;;;4134703;28;20036;-73
2022/07/10 07:11:41;;;;;;;6.68;1.25;;;18.00;99.90;;;;;;4134426;28;20031;-73
2022/07/10 07:13:42;;;;;;;2.78;1.40;;;18.10;99.90;;;;;;4134979;28;20030;-73
2022/07/10 07:15:49;;;;;;;2.55;1.42;;;18.10;99.90;;;;;;4134829;28;20043;-73
2022/07/10 07:18:11;;;;;;;5.55;1.80;;;18.00;99.90;;;;;;4136032;28;20121;-73
2022/07/10 07:24:50;;;;;;;3.00;1.27;;;18.10;99.90;;;;;;4135978;28;20034;-74
2022/07/10 07:26:51;;;;;;;8.95;1.55;;;18.00;99.90;;;;;;4135586;28;20073;-74
2022/07/10 07:28:51;;;;;;;6.18;1.33;;;18.00;99.90;;;;;;4134688;28;20034;-74
2022/07/10 07:30:52;;;;;;;4.28;1.58;;;18.00;99.90;;;;;;4133887;28;20038;-73
2022/07/10 07:32:53;;;;;;;4.70;1.67;;;18.00;99.90;;;;;;4134097;28;20030;-73
2022/07/10 07:34:53;;;;;;;4.90;1.48;;;18.00;99.90;;;;;;4135821;28;20101;-73
2022/07/10 07:36:54;;;;;;;3.33;1.30;;;18.00;99.90;;;;;;4136082;28;20033;-73
2022/07/10 07:38:54;;;;;;;6.13;1.80;;;18.00;99.90;;;;;;4135715;28;20042;-73
2022/07/10 07:40:55;;;;;;;7.30;1.65;;;18.00;99.90;;;;;;4129129;28;20031;-72
2022/07/10 07:42:56;;;;;;;6.72;1.98;;;18.00;99.90;;;;;;4131919;28;20457;-73
2022/07/10 07:44:56;;;;;;;6.35;1.33;;;18.00;99.90;;;;;;4131881;28;20038;-75
2022/07/10 07:46:57;;;;;;;5.10;1.20;;;18.10;99.90;;;;;;4134124;28;20042;-72
2022/07/10 07:48:57;;;;;;;5.40;1.20;;;18.10;99.90;;;;;;4135156;28;20482;-71
2022/07/10 07:50:58;;;;;;;3.78;1.17;;;18.10;99.90;;;;;;4138203;28;20034;-73
2022/07/10 07:53:00;;;;;;;5.65;1.23;;;18.20;99.90;;;;;;4133341;28;20030;-72
2022/07/10 07:55:01;;;;;;;4.65;1.23;;;18.20;99.90;;;;;;4137215;28;20090;-73
2022/07/10 07:57:02;;;;;;;6.53;1.60;;;18.20;99.90;;;;;;4132872;28;20026;-73
2022/07/10 07:59:03;;;;;;;4.63;1.65;;;18.30;99.90;;;;;;4135072;28;20030;-73
2022/07/10 08:01:04;;;;;;;3.17;1.13;;;18.30;99.90;;;;;;4134996;28;20046;-73
2022/07/10 08:03:04;;;;;;;7.88;1.70;;;18.30;99.90;;;;;;4130654;28;20058;-72
2022/07/10 08:05:06;;;;;;;5.45;1.70;;;18.30;99.90;;;;;;4134073;28;20478;-73
2022/07/10 08:07:06;;;;;;;3.55;1.20;;;18.30;99.90;;;;;;4135298;28;20497;-73
2022/07/10 08:09:07;;;;;;;3.97;1.35;;;18.30;99.90;;;;;;4135155;28;20031;-75
2022/07/10 08:11:08;;;;;;;4.53;1.48;;;18.30;99.90;;;;;;4132998;28;20113;-73
2022/07/10 08:13:08;;;;;;;6.18;1.85;;;18.30;99.90;;;;;;4127611;28;20026;-73
2022/07/10 08:15:13;;;;;;;4.20;1.30;;;18.30;99.90;;;;;;4134054;28;20506;-74
2022/07/10 08:17:14;;;;;;;5.57;1.40;;;18.30;99.90;;;;;;4133554;28;20045;-73
2022/07/10 08:19:15;;;;;;;5.30;1.30;;;18.30;99.90;;;;;;4132415;28;20043;-73
2022/07/10 08:21:15;;;;;;;5.72;1.45;;;18.30;99.90;;;;;;4131689;28;20482;-73
2022/07/10 08:23:16;;;;;;;5.10;1.45;;;18.30;99.90;;;;;;4132074;28;20138;-73
2022/07/10 08:25:16;;;;;;;1.85;0.73;;;18.30;99.90;;;;;;4134422;28;20196;-73
2022/07/10 08:27:17;;;;;;;8.45;1.65;;;18.30;99.90;;;;;;4128824;28;20093;-73
2022/07/10 08:29:18;;;;;;;7.95;1.60;;;18.30;99.90;;;;;;4131738;28;20050;-73
2022/07/10 08:31:18;;;;;;;3.72;1.50;;;18.30;99.90;;;;;;4123508;28;20034;-73
2022/07/10 08:33:20;;;;;;;5.72;1.45;;;18.30;99.90;;;;;;4132174;28;20027;-73
2022/07/10 08:35:21;;;;;;;1.95;1.10;;;18.40;99.90;;;;;;4137103;28;20038;-73
2022/07/10 08:37:22;;;;;;;3.15;1.10;;;18.30;99.90;;;;;;4134848;28;20088;-73
2022/07/10 08:39:23;;;;;;;8.35;1.95;;;18.30;99.90;;;;;;4134281;28;20049;-73
2022/07/10 08:41:27;;;;;;;5.38;1.40;;;18.40;99.90;;;;;;4133001;28;20034;-73
2022/07/10 08:43:28;;;;;;;6.60;1.77;;;18.30;99.90;;;;;;4134369;28;20054;-69
2022/07/10 08:45:33;;;;;;;6.70;1.77;;;18.30;99.90;;;;;;4135094;28;20050;-72
2022/07/10 08:47:35;;;;;;;7.15;1.80;;;18.20;99.90;;;;;;4131846;28;20030;-72
2022/07/10 08:49:37;;;;;;;9.18;1.83;;;18.20;99.90;;;;;;4132684;28;20042;-72
2022/07/10 08:51:57;;;;;;;4.47;1.55;;;18.10;99.90;;;;;;4132338;28;20191;-72
2022/07/10 08:54:01;;;;;;;4.60;1.40;;;18.00;99.90;;;;;;4132308;28;20089;-71
2022/07/10 08:56:02;;;;;;;6.38;1.83;;;17.90;99.90;;;;;;4134458;28;20397;-72
2022/07/10 08:58:04;;;;;;;6.10;1.60;;;17.90;99.90;;;;;;4133382;28;20026;-72
2022/07/10 09:00:05;;;;;;;6.03;1.55;;;18.00;99.90;;;;;;4119907;28;20034;-73
2022/07/10 09:02:06;;;;;;;6.40;2.00;;;17.90;99.90;;;;;;4132723;28;20026;-72
2022/07/10 09:04:06;;;;;;;5.40;1.58;;;17.90;99.90;;;;;;4132603;28;20026;-72
2022/07/10 09:06:07;;;;;;;4.15;1.23;;;17.90;99.90;;;;;;4130876;28;20041;-72
2022/07/10 09:08:32;;;;;;;5.28;1.58;;;17.80;99.90;;;;;;4133404;28;20038;-72
2022/07/10 09:10:33;;;;;;;4.40;1.27;;;17.80;99.90;;;;;;4125699;28;20034;-72
2022/07/10 09:12:55;;;;;;;3.10;1.38;;;17.80;99.90;;;;;;4126820;28;20038;-73
2022/07/10 09:15:16;;;;;;;6.68;1.77;;;17.70;99.90;;;;;;4131209;28;20494;-69
2022/07/10 09:17:17;;;;;;;4.18;1.50;;;17.80;99.90;;;;;;4135284;28;20601;-72
2022/07/10 09:19:26;;;;;;;3.17;1.23;;;17.70;99.90;;;;;;4134378;28;20038;-72
2022/07/10 09:21:32;;;;;;;3.42;1.60;;;17.80;99.90;;;;;;4133305;28;20076;-72
2022/07/10 09:23:33;;;;;;;5.57;1.85;;;17.80;99.90;;;;;;4136001;28;20041;-72
2022/07/10 09:25:34;;;;;;;3.78;1.20;;;17.80;99.90;;;;;;4136353;28;20437;-72
2022/07/10 09:27:54;;;;;;;3.92;1.13;;;17.80;99.90;;;;;;4136589;28;20034;-73
2022/07/10 09:29:58;;;;;;;3.05;1.08;;;17.80;99.90;;;;;;4146602;28;20057;-72
2022/07/10 09:32:02;;;;;;;1.92;1.00;;;17.90;99.90;;;;;;4135141;28;20019;-69
2022/07/10 09:34:03;;;;;;;5.22;1.58;;;17.90;99.90;;;;;;4134409;28;20174;-72
2022/07/10 09:36:11;;;;;;;2.55;1.02;;;17.90;99.90;;;;;;4134038;28;20397;-72
2022/07/10 09:38:11;;;;;;;4.13;0.98;;;17.80;99.90;;;;;;4132138;28;20022;-72
2022/07/10 09:40:12;;;;;;;2.63;1.10;;;17.90;99.90;;;;;;4137771;28;20050;-73
2022/07/10 09:42:33;;;;;;;3.42;1.13;;;17.90;99.90;;;;;;4136106;28;20112;-74
2022/07/10 09:44:34;;;;;;;2.35;1.20;;;17.90;99.90;;;;;;4138194;28;20043;-73
2022/07/10 09:46:39;;;;;;;3.70;1.15;;;17.90;99.90;;;;;;4134364;28;20044;-72
2022/07/10 09:48:43;;;;;;;2.33;1.30;;;18.00;99.90;;;;;;4135228;28;20058;-73
2022/07/10 09:50:43;;;;;;;3.13;1.42;;;18.00;99.90;;;;;;4136275;28;20486;-73
2022/07/10 09:52:46;;;;;;;2.65;1.20;;;18.10;99.90;;;;;;4137336;28;20030;-72
2022/07/10 09:54:47;;;;;;;2.88;1.48;;;18.00;99.90;;;;;;4139496;28;20112;-72
2022/07/10 09:56:53;;;;;;;2.63;1.13;;;18.10;99.90;;;;;;4130819;28;20023;-72
2022/07/10 09:58:59;;;;;;;1.88;1.02;;;18.10;99.90;;;;;;4136383;28;20026;-73
2022/07/10 10:01:01;;;;;;;3.40;1.20;;;18.20;99.90;;;;;;4135840;28;20371;-72
2022/07/10 10:03:05;;;;;;;8.43;1.87;;;18.20;99.90;;;;;;4134816;28;20061;-72
2022/07/10 10:05:07;;;;;;;2.33;1.10;;;18.30;99.90;;;;;;4138723;28;20397;-73
2022/07/10 10:07:12;;;;;;;2.88;1.27;;;18.30;99.90;;;;;;4136146;28;20048;-72
2022/07/10 10:09:31;;;;;;;2.70;1.00;;;18.40;99.90;;;;;;4137906;28;20113;-73
2022/07/10 10:11:35;;;;;;;1.17;0.82;;;18.40;99.90;;;;;;4133642;28;20498;-73
2022/07/10 10:13:35;;;;;;;1.73;1.20;;;18.50;99.90;;;;;;4136911;28;20030;-73
2022/07/10 10:15:37;;;;;;;5.63;1.15;;;18.60;99.90;;;;;;4138147;28;20138;-73
2022/07/10 10:17:40;;;;;;;4.53;1.10;;;18.70;99.90;;;;;;4138261;28;20057;-73
2022/07/10 10:22:02;;;;;;;4.03;1.80;;;18.80;99.90;;;;;;4136277;28;20034;-72
2022/07/10 10:24:03;;;;;;;3.57;1.50;;;19.00;99.90;;;;;;4138129;28;20073;-73
2022/07/10 10:26:04;;;;;;;1.80;0.95;;;19.00;99.90;;;;;;4140972;28;20124;-73
2022/07/10 10:28:12;;;;;;;5.15;1.33;;;18.90;99.90;;;;;;4136515;28;20046;-72
2022/07/10 10:30:13;;;;;;;5.78;1.40;;;18.90;99.90;;;;;;4132505;28;20035;-73
2022/07/10 10:32:14;;;;;;;6.97;1.35;;;18.80;99.90;;;;;;4134126;28;20106;-72
2022/07/10 10:34:41;;;;;;;2.42;0.88;;;18.80;99.90;;;;;;4118361;28;20047;-72
2022/07/10 10:36:44;;;;;;;2.72;0.93;;;18.80;99.90;;;;;;4134297;28;20080;-72
2022/07/10 10:38:51;;;;;;;2.78;0.90;;;18.90;99.90;;;;;;4137266;28;20045;-73
2022/07/10 10:40:52;;;;;;;3.28;1.13;;;18.90;99.90;;;;;;4136511;28;20042;-73
2022/07/10 10:42:55;;;;;;;2.83;1.05;;;18.80;99.90;;;;;;4133931;28;20046;-73
2022/07/10 10:45:32;;;;;;;3.58;1.30;;;18.90;99.90;;;;;;4123480;28;20125;-72
2022/07/10 10:48:04;;;;;;;6.50;1.42;;;19.00;99.90;;;;;;4132441;28;20076;-72